Time;durP1;ratioP1;P1;durP2;ratioP2;P2;SDS_P1;SDS_P2;PMS_P1;PMS_P2;Temp;Humidity;BMP_temperature;BMP_pressure;BME280_temperature;BME280_humidity;BME280_pressure;Samples;Min_cycle;Max_cycle;Signal;HPM_P1;HPM_P2
2023/01/03 00:04:57;;;;;;;11.85;8.20;;;;;;;2.97;100.00;102357.16;10530805;28;20074;-78
2023/01/03 00:10:01;;;;;;;14.93;9.10;;;;;;;2.92;100.00;102363.09;10500827;28;20044;-83
2023/01/03 00:15:02;;;;;;;12.18;8.73;;;;;;;2.85;100.00;102366.66;10549760;28;20048;-82
2023/01/03 00:20:03;;;;;;;12.02;8.95;;;;;;;2.78;100.00;102374.63;10534181;28;20552;-81
2023/01/03 00:25:03;;;;;;;22.35;10.27;;;;;;;2.69;100.00;102383.78;10533580;28;20504;-83
2023/01/03 00:30:04;;;;;;;17.38;9.45;;;;;;;2.65;100.00;102394.16;10549252;28;20036;-83
2023/01/03 00:35:05;;;;;;;16.30;9.15;;;;;;;2.61;100.00;102396.34;10515728;28;20040;-82
2023/01/03 00:40:07;;;;;;;21.92;12.90;;;;;;;2.59;100.00;102392.94;10533430;28;20520;-83
2023/01/03 00:45:08;;;;;;;26.50;13.95;;;;;;;2.61;100.00;102390.91;10532739;28;20032;-82
2023/01/03 00:50:08;;;;;;;26.85;14.27;;;;;;;2.61;100.00;102390.91;10489329;28;20077;-83
2023/01/03 00:55:09;;;;;;;24.23;14.57;;;;;;;2.56;100.00;102397.84;10531946;28;20086;-82
2023/01/03 01:00:10;;;;;;;23.38;14.35;;;;;;;2.45;100.00;102390.84;10533436;28;20032;-82
2023/01/03 01:05:10;;;;;;;29.90;18.02;;;;;;;2.46;100.00;102411.56;10552661;28;20516;-83
2023/01/03 01:10:11;;;;;;;28.40;14.40;;;;;;;2.37;100.00;102417.97;10540441;27;20032;-84
2023/01/03 01:15:12;;;;;;;22.17;12.32;;;;;;;2.26;100.00;102435.41;10551008;28;20553;-77
2023/01/03 01:20:12;;;;;;;12.95;10.63;;;;;;;2.18;100.00;102433.50;10510741;28;20079;-82
2023/01/03 01:25:13;;;;;;;15.93;8.90;;;;;;;2.21;100.00;102454.94;10527433;28;20101;-82
2023/01/03 01:30:13;;;;;;;17.45;9.55;;;;;;;2.36;100.00;102457.06;10545021;28;20056;-82
2023/01/03 01:35:14;;;;;;;14.25;8.55;;;;;;;2.44;100.00;102459.81;10527040;28;20054;-83
2023/01/03 01:40:14;;;;;;;16.05;8.98;;;;;;;2.52;100.00;102459.00;10530232;28;20107;-82
2023/01/03 01:45:15;;;;;;;14.30;8.48;;;;;;;2.51;100.00;102454.59;10601719;27;20075;-82
2023/01/03 01:50:28;;;;;;;12.32;8.75;;;;;;;2.67;100.00;102470.97;10568101;27;20035;-83
2023/01/03 01:55:56;;;;;;;13.85;8.38;;;;;;;2.74;100.00;102476.59;10568554;28;20035;-81
2023/01/03 02:00:57;;;;;;;16.88;9.18;;;;;;;2.80;100.00;102470.50;10567393;27;20070;-83
2023/01/03 02:05:57;;;;;;;11.18;8.40;;;;;;;2.87;100.00;102477.00;10567841;28;20035;-82
2023/01/03 02:11:16;;;;;;;18.95;9.00;;;;;;;2.95;100.00;102476.19;10530023;28;20040;-83
2023/01/03 02:16:26;;;;;;;19.92;10.27;;;;;;;3.02;100.00;102477.25;10575488;27;20036;-82
2023/01/03 02:21:31;;;;;;;16.33;9.70;;;;;;;3.03;100.00;102471.59;10525478;28;20438;-81
2023/01/03 02:26:41;;;;;;;18.08;11.75;;;;;;;3.03;100.00;102462.59;10525055;28;20036;-81
2023/01/03 02:31:56;;;;;;;18.83;12.10;;;;;;;3.02;100.00;102469.06;10541551;28;20059;-81
2023/01/03 02:37:08;;;;;;;17.38;11.35;;;;;;;3.08;100.00;102467.53;10530822;28;20043;-82
2023/01/03 02:43:00;;;;;;;28.65;13.75;;;;;;;3.12;100.00;102474.34;10582837;27;20061;-83
2023/01/03 02:48:16;;;;;;;17.65;12.73;;;;;;;3.13;100.00;102470.63;10534976;27;20091;-83
2023/01/03 02:53:20;;;;;;;14.90;10.55;;;;;;;3.03;100.00;102459.88;10582780;27;20103;-82
2023/01/03 02:58:22;;;;;;;16.15;10.57;;;;;;;3.09;100.00;102471.97;10566086;27;20369;-82
2023/01/03 03:03:24;;;;;;;24.70;12.50;;;;;;;3.09;100.00;102483.72;10531664;27;20040;-82
2023/01/03 03:08:25;;;;;;;15.48;10.82;;;;;;;3.05;100.00;102462.44;10548163;27;20043;-81
2023/01/03 03:13:45;;;;;;;20.17;12.32;;;;;;;3.23;100.00;102482.22;10519471;28;20036;-82
2023/01/03 03:18:58;;;;;;;20.85;12.43;;;;;;;3.28;100.00;102485.28;10522024;28;20089;-82
2023/01/03 03:25:06;;;;;;;18.92;11.95;;;;;;;3.31;100.00;102479.53;10539878;28;20051;-82
2023/01/03 03:29:35;;;;;;;22.17;13.75;;;;;;;3.23;100.00;102487.66;10507838;28;20028;-83
2023/01/03 03:34:37;;;;;;;21.48;13.73;;;;;;;3.13;100.00;102486.97;10539617;28;20032;-82
2023/01/03 03:44:59;;;;;;;16.20;12.73;;;;;;;2.66;100.00;102477.41;10566467;27;20039;-82
2023/01/03 03:50:39;;;;;;;20.65;13.07;;;;;;;2.61;100.00;102488.78;10547729;28;20036;-82
2023/01/03 03:55:55;;;;;;;25.05;13.68;;;;;;;2.37;100.00;102475.06;10578499;27;20031;-83
2023/01/03 04:00:56;;;;;;;25.05;14.77;;;;;;;2.34;100.00;102494.41;10580569;28;20035;-83
2023/01/03 04:05:59;;;;;;;22.95;13.63;;;;;;;2.36;100.00;102492.38;10545292;28;20073;-83
2023/01/03 04:11:06;;;;;;;25.00;15.45;;;;;;;2.39;100.00;102511.06;10545426;27;20074;-82
2023/01/03 04:16:06;;;;;;;22.65;13.93;;;;;;;2.24;100.00;102493.66;10529643;28;20077;-83
2023/01/03 04:21:07;;;;;;;30.23;16.50;;;;;;;2.06;100.00;102494.53;10545609;28;20062;-83
2023/01/03 04:26:07;;;;;;;24.63;15.20;;;;;;;2.07;100.00;102507.13;10547131;28;20495;-83
2023/01/03 04:31:08;;;;;;;23.95;16.05;;;;;;;2.00;100.00;102522.34;10545561;28;20031;-83
2023/01/03 04:36:08;;;;;;;26.97;17.00;;;;;;;1.93;100.00;102516.69;10545056;28;20621;-83
2023/01/03 04:41:09;;;;;;;29.45;16.70;;;;;;;1.90;100.00;102516.13;10542608;28;20032;-82
2023/01/03 04:46:09;;;;;;;33.77;17.00;;;;;;;1.89;100.00;102519.88;10528823;28;20036;-81
2023/01/03 04:51:10;;;;;;;29.20;17.23;;;;;;;1.77;100.00;102501.09;10512016;28;20063;-78
2023/01/03 04:56:10;;;;;;;30.67;16.90;;;;;;;1.81;100.00;102510.63;10512837;28;20226;-82
2023/01/03 05:01:11;;;;;;;32.17;19.00;;;;;;;1.76;100.00;102523.84;10544962;28;20032;-82
2023/01/03 05:06:11;;;;;;;35.42;18.00;;;;;;;1.89;100.00;102534.31;10526879;28;20032;-81
2023/01/03 05:11:12;;;;;;;38.22;19.25;;;;;;;1.95;100.00;102532.84;10561388;27;20062;-81
2023/01/03 05:16:13;;;;;;;38.47;21.40;;;;;;;1.95;100.00;102522.81;10551981;27;20039;-81
2023/01/03 05:26:38;;;;;;;49.75;23.70;;;;;;;1.86;100.00;102541.91;10557568;27;20596;-81
2023/01/03 05:31:39;;;;;;;46.13;23.77;;;;;;;1.99;100.00;102536.94;10535108;27;20049;-81
2023/01/03 05:36:39;;;;;;;51.67;25.25;;;;;;;2.13;100.00;102547.25;10570036;27;20101;-81
2023/01/03 05:41:58;;;;;;;55.42;27.75;;;;;;;2.29;100.00;102545.66;10551105;27;20050;-81
2023/01/03 05:47:00;;;;;;;57.80;26.83;;;;;;;2.42;100.00;102548.84;10586321;27;20032;-82
2023/01/03 05:52:00;;;;;;;56.33;28.48;;;;;;;2.51;100.00;102542.44;10568696;27;20178;-83
2023/01/03 05:57:01;;;;;;;59.53;26.55;;;;;;;2.63;100.00;102537.56;10568541;28;20028;-83
2023/01/03 06:02:01;;;;;;;52.83;26.23;;;;;;;2.67;100.00;102530.81;10551115;28;20043;-83
2023/01/03 06:07:02;;;;;;;50.07;25.77;;;;;;;2.71;100.00;102536.75;10509309;28;20079;-82
2023/01/03 06:12:02;;;;;;;48.40;25.00;;;;;;;2.82;100.00;102539.22;10508076;28;20059;-81
2023/01/03 06:22:22;;;;;;;44.45;22.30;;;;;;;2.86;100.00;102540.59;10555673;27;20097;-81
2023/01/03 06:27:22;;;;;;;44.07;23.07;;;;;;;2.87;100.00;102546.88;10586045;27;20552;-82
2023/01/03 06:32:23;;;;;;;36.22;21.65;;;;;;;2.76;100.00;102531.69;10533363;27;20407;-82
2023/01/03 06:37:23;;;;;;;43.63;23.70;;;;;;;2.76;100.00;102545.28;10532282;27;20438;-82
2023/01/03 06:42:41;;;;;;;39.40;22.17;;;;;;;2.78;100.00;102548.72;10549324;27;20494;-82
2023/01/03 06:53:12;;;;;;;41.85;24.80;;;;;;;2.52;100.00;102536.00;10585121;27;20077;-82
2023/01/03 06:58:13;;;;;;;48.83;26.23;;;;;;;2.45;100.00;102562.09;10553250;27;20541;-82
2023/01/03 07:03:13;;;;;;;52.70;26.25;;;;;;;2.24;100.00;102567.88;10565309;27;20050;-82
2023/01/03 07:08:14;;;;;;;54.35;24.05;;;;;;;1.94;100.00;102561.00;10564414;27;20055;-83
2023/01/03 07:18:33;;;;;;;56.10;27.40;;;;;;;1.72;100.00;102573.19;10542303;28;20033;-83
2023/01/03 07:23:34;;;;;;;62.30;28.50;;;;;;;1.52;100.00;102586.03;10556959;28;20052;-81
2023/01/03 07:28:34;;;;;;;55.70;27.60;;;;;;;1.46;100.00;102594.78;10540115;28;20056;-82
2023/01/03 07:33:37;;;;;;;62.67;30.15;;;;;;;1.37;100.00;102589.25;10539115;28;20048;-81
2023/01/03 07:38:39;;;;;;;54.93;28.80;;;;;;;1.28;100.00;102584.75;10523264;27;20472;-82
2023/01/03 07:43:41;;;;;;;60.05;28.58;;;;;;;1.23;100.00;102600.63;10539719;28;20039;-81
2023/01/03 07:48:42;;;;;;;59.05;27.52;;;;;;;1.07;100.00;102611.25;10563410;27;20046;-81
2023/01/03 07:53:43;;;;;;;61.13;28.43;;;;;;;0.91;100.00;102618.16;10563948;27;20051;-82
2023/01/03 07:58:44;;;;;;;60.37;32.37;;;;;;;0.82;100.00;102624.47;10546700;27;20054;-81
2023/01/03 08:03:44;;;;;;;68.70;32.92;;;;;;;0.71;100.00;102602.97;10546704;28;20040;-80
2023/01/03 08:13:16;;;;;;;68.10;33.17;;;;;;;0.88;100.00;102613.03;10546695;28;20047;-80
2023/01/03 08:14:05;;;;;;;78.20;35.90;;;;;;;0.82;100.00;102602.78;10546613;28;20055;-81
2023/01/03 08:19:05;;;;;;;71.10;35.70;;;;;;;0.96;100.00;102621.28;10555099;28;20032;-82
2023/01/03 08:24:06;;;;;;;77.43;38.47;;;;;;;0.94;100.00;102623.28;10520806;28;20074;-81
2023/01/03 08:29:07;;;;;;;81.13;36.60;;;;;;;0.97;100.00;102623.00;10537608;28;20037;-81
2023/01/03 08:34:07;;;;;;;72.73;34.93;;;;;;;0.88;100.00;102609.47;10538339;28;20044;-81
2023/01/03 08:39:10;;;;;;;72.57;36.77;;;;;;;0.95;100.00;102635.84;10560868;27;20043;-81
2023/01/03 08:44:10;;;;;;;73.57;34.33;;;;;;;0.97;100.00;102639.28;10545462;28;20040;-81
2023/01/03 08:49:11;;;;;;;83.87;40.10;;;;;;;1.04;100.00;102642.25;10563250;28;20040;-81
2023/01/03 08:54:12;;;;;;;83.60;40.43;;;;;;;1.08;100.00;102631.97;10579321;28;20538;-81
2023/01/03 08:59:12;;;;;;;74.78;36.58;;;;;;;1.04;100.00;102633.25;10545008;28;20028;-80
2023/01/03 09:04:12;;;;;;;142.60;32.77;;;;;;;1.02;100.00;102648.84;10544383;28;20044;-73
2023/01/03 09:09:13;;;;;;;105.88;25.52;;;;;;;0.98;100.00;102657.25;10546379;28;20047;-80
2023/01/03 09:14:13;;;;;;;104.87;28.70;;;;;;;1.05;100.00;102656.66;10543207;28;20062;-82
2023/01/03 09:19:14;;;;;;;74.40;26.63;;;;;;;0.97;100.00;102660.97;10545285;28;20051;-81
2023/01/03 09:24:14;;;;;;;73.37;28.40;;;;;;;1.05;100.00;102653.94;10545840;28;20044;-81
2023/01/03 09:29:15;;;;;;;105.60;29.73;;;;;;;1.24;100.00;102655.72;10552513;27;20046;-81
2023/01/03 09:34:15;;;;;;;62.77;28.00;;;;;;;1.36;100.00;102649.94;10553002;27;20048;-82
2023/01/03 09:39:16;;;;;;;79.13;30.13;;;;;;;1.64;100.00;102665.41;10543917;27;20043;-82
2023/01/03 09:44:16;;;;;;;83.90;29.83;;;;;;;1.70;100.00;102652.09;10543365;28;20064;-82
2023/01/03 09:49:17;;;;;;;91.23;27.87;;;;;;;1.92;100.00;102655.38;10526943;28;20028;-81
2023/01/03 10:05:34;;;;;;;103.80;29.63;;;;;;;2.30;100.00;102666.97;10544187;28;20038;-81
2023/01/03 10:10:45;;;;;;;107.50;31.27;;;;;;;2.31;100.00;102650.47;10560652;27;20048;-83
2023/01/03 10:16:19;;;;;;;120.38;36.90;;;;;;;2.58;100.00;102655.00;10509735;28;20039;-83
2023/01/03 10:21:48;;;;;;;105.43;35.43;;;;;;;2.77;100.00;102650.34;10546276;27;20081;-81
2023/01/03 10:27:02;;;;;;;112.35;38.40;;;;;;;2.95;100.00;102648.44;10547328;28;20070;-82
2023/01/03 10:32:03;;;;;;;98.28;38.40;;;;;;;3.13;100.00;102639.34;10567907;27;20055;-82
2023/01/03 10:37:16;;;;;;;113.90;43.22;;;;;;;3.19;100.00;102617.78;10582864;27;20031;-82
2023/01/03 10:42:18;;;;;;;128.68;42.67;;;;;;;3.44;100.00;102626.91;10535151;27;20040;-81
2023/01/03 10:47:19;;;;;;;124.93;43.72;;;;;;;3.62;100.00;102624.09;10528284;27;20032;-81
2023/01/03 10:52:21;;;;;;;126.70;45.30;;;;;;;3.69;100.00;102613.38;10565511;28;20059;-81
2023/01/03 10:57:38;;;;;;;126.30;46.35;;;;;;;3.77;100.00;102605.22;10528259;27;20032;-81
2023/01/03 11:02:42;;;;;;;119.13;45.40;;;;;;;3.75;100.00;102595.53;10594270;27;20035;-81
2023/01/03 11:07:43;;;;;;;118.32;45.72;;;;;;;3.79;100.00;102578.66;10581329;27;20035;-81
2023/01/03 11:12:45;;;;;;;124.43;48.38;;;;;;;3.97;100.00;102573.09;10582128;28;20035;-82
2023/01/03 11:17:53;;;;;;;112.70;45.63;;;;;;;2.84;100.00;102379.41;10581376;27;20120;-80
2023/01/03 11:22:55;;;;;;;108.97;41.88;;;;;;;4.21;100.00;102553.13;10582484;27;20483;-81
2023/01/03 11:28:09;;;;;;;96.03;44.65;;;;;;;4.41;100.00;102547.34;10548129;27;20074;-81
2023/01/03 11:33:15;;;;;;;92.97;39.63;;;;;;;4.56;100.00;102536.56;10547193;28;20038;-82
2023/01/03 11:38:27;;;;;;;86.57;39.25;;;;;;;4.62;100.00;102506.72;10581597;28;20420;-81
2023/01/03 11:43:38;;;;;;;90.78;41.55;;;;;;;4.79;100.00;102502.06;10582045;27;20036;-81
2023/01/03 11:48:46;;;;;;;86.78;40.58;;;;;;;4.95;100.00;102527.59;10563409;27;20047;-82
2023/01/03 11:54:00;;;;;;;79.95;37.30;;;;;;;4.99;100.00;102520.75;10570245;28;20042;-81
2023/01/03 11:59:19;;;;;;;75.57;37.63;;;;;;;4.98;100.00;102522.66;10573875;28;20044;-82
2023/01/03 12:04:39;;;;;;;81.43;37.13;;;;;;;4.95;100.00;102509.34;10582893;27;20061;-83
2023/01/03 12:10:03;;;;;;;68.78;37.90;;;;;;;4.98;100.00;102506.28;10563514;28;20111;-83
2023/01/03 12:15:13;;;;;;;67.28;36.67;;;;;;;5.03;100.00;102495.66;10558020;27;20099;-76
2023/01/03 12:20:23;;;;;;;73.68;38.22;;;;;;;4.98;100.00;102489.91;10562171;28;20528;-81
2023/01/03 12:25:31;;;;;;;67.38;36.70;;;;;;;5.12;100.00;102496.47;10563276;28;20035;-81
2023/01/03 12:30:53;;;;;;;73.50;35.90;;;;;;;5.11;100.00;102493.94;10580248;28;20173;-80
2023/01/03 12:36:04;;;;;;;69.93;37.33;;;;;;;5.15;100.00;102484.34;10548366;28;22146;-86
2023/01/03 12:41:24;;;;;;;73.20;37.58;;;;;;;5.26;100.00;102473.00;10552111;28;20044;-81
2023/01/03 12:46:35;;;;;;;63.42;34.75;;;;;;;5.26;100.00;102464.81;10541998;28;20093;-82
2023/01/03 12:51:35;;;;;;;66.85;36.17;;;;;;;5.20;100.00;102446.44;10562743;28;20035;-85
2023/01/03 12:57:21;;;;;;;63.38;36.00;;;;;;;5.36;100.00;102462.72;10544504;28;20392;-83
2023/01/03 13:02:44;;;;;;;63.90;37.70;;;;;;;5.40;100.00;102457.75;10546251;27;20119;-86
2023/01/03 13:08:19;;;;;;;63.33;35.08;;;;;;;5.10;100.00;102400.25;10537152;27;20047;-83
2023/01/03 13:13:19;;;;;;;63.63;37.03;;;;;;;5.47;100.00;102448.63;10570099;27;20047;-85
2023/01/03 13:18:20;;;;;;;63.97;34.83;;;;;;;5.52;100.00;102452.69;10550986;27;20040;-83
2023/01/03 13:23:30;;;;;;;57.55;32.25;;;;;;;5.57;100.00;102436.63;10586097;28;20040;-84
2023/01/03 13:28:38;;;;;;;56.17;34.05;;;;;;;5.55;100.00;102430.50;10558472;27;20039;-85
2023/01/03 13:33:47;;;;;;;56.92;32.63;;;;;;;5.63;100.00;102460.47;10569167;27;20039;-82
2023/01/03 13:38:48;;;;;;;59.33;32.58;;;;;;;5.63;100.00;102446.81;10573557;27;20086;-83
2023/01/03 13:43:49;;;;;;;48.00;30.05;;;;;;;5.66;100.00;102449.16;10524750;28;20032;-81
2023/01/03 13:48:54;;;;;;;50.05;29.73;;;;;;;5.59;100.00;102438.13;10541647;28;20119;-77
2023/01/03 13:54:00;;;;;;;51.03;28.67;;;;;;;5.69;100.00;102443.34;10541802;28;20478;-81
2023/01/03 13:59:13;;;;;;;45.58;28.40;;;;;;;5.69;100.00;102448.81;10523971;28;20510;-79
2023/01/03 14:04:19;;;;;;;42.40;26.48;;;;;;;5.71;100.00;102444.00;10541667;28;20043;-80
2023/01/03 14:09:47;;;;;;;49.08;28.23;;;;;;;5.74;100.00;102442.78;10542630;28;20044;-80
2023/01/03 14:14:55;;;;;;;45.78;28.45;;;;;;;5.72;100.00;102437.50;10569517;27;20414;-79
2023/01/03 14:19:57;;;;;;;45.78;27.35;;;;;;;5.73;100.00;102425.56;10548958;28;20032;-80
2023/01/03 14:24:58;;;;;;;48.17;26.83;;;;;;;5.76;100.00;102419.72;10582624;27;20058;-79
2023/01/03 14:29:58;;;;;;;44.03;26.58;;;;;;;5.77;100.00;102412.38;10548699;27;20042;-79
2023/01/03 14:34:59;;;;;;;46.72;28.27;;;;;;;5.70;100.00;102412.25;10532088;28;20028;-79
2023/01/03 14:40:01;;;;;;;49.60;28.52;;;;;;;5.72;100.00;102414.81;10515362;28;20070;-79
2023/01/03 14:45:05;;;;;;;47.15;27.17;;;;;;;5.88;100.00;102424.75;10523038;28;20036;-80
2023/01/03 14:50:06;;;;;;;40.60;25.75;;;;;;;5.93;100.00;102422.28;10539026;28;20035;-79
2023/01/03 14:55:14;;;;;;;39.25;24.50;;;;;;;5.88;100.00;102420.13;10522307;28;20039;-81
2023/01/03 15:00:19;;;;;;;38.30;23.27;;;;;;;6.00;100.00;102428.75;10557075;28;20051;-78
2023/01/03 15:05:42;;;;;;;32.78;23.63;;;;;;;6.03;100.00;102414.69;10574447;27;20051;-79
2023/01/03 15:10:54;;;;;;;43.20;24.10;;;;;;;6.02;100.00;102399.34;10568636;27;22109;-78
2023/01/03 15:15:55;;;;;;;32.10;22.48;;;;;;;6.01;100.00;102397.63;10571736;27;20044;-79
2023/01/03 15:20:56;;;;;;;33.80;21.92;;;;;;;6.01;100.00;102392.16;10566954;27;20040;-77
2023/01/03 15:25:58;;;;;;;35.33;21.17;;;;;;;6.13;100.00;102398.03;10546314;27;20035;-79
2023/01/03 15:31:12;;;;;;;31.23;21.17;;;;;;;6.20;100.00;102409.91;10541981;27;20044;-79
2023/01/03 15:36:13;;;;;;;30.63;21.00;;;;;;;6.14;100.00;102403.31;10544737;27;20044;-79
2023/01/03 15:43:18;;;;;;;31.35;21.35;;;;;;;6.21;100.00;102396.06;10544797;28;20463;-79
2023/01/03 15:46:43;;;;;;;30.33;20.83;;;;;;;6.17;100.00;102388.41;10566878;27;20048;-77
2023/01/03 15:51:44;;;;;;;32.65;21.08;;;;;;;6.24;100.00;102395.69;10534275;27;20051;-78
2023/01/03 15:56:52;;;;;;;28.70;20.13;;;;;;;6.23;100.00;102391.25;10565437;27;20032;-78
2023/01/03 16:01:53;;;;;;;33.75;19.25;;;;;;;6.24;100.00;102386.63;10534199;27;20036;-78
2023/01/03 16:06:53;;;;;;;28.02;19.90;;;;;;;6.22;100.00;102388.69;10544325;27;20530;-78
2023/01/03 16:11:55;;;;;;;26.85;18.65;;;;;;;6.23;100.00;102385.78;10512199;27;20720;-78
2023/01/03 16:16:56;;;;;;;27.73;18.38;;;;;;;6.30;100.00;102374.09;10543718;27;20040;-78
2023/01/03 16:21:58;;;;;;;28.42;19.20;;;;;;;6.27;100.00;102369.84;10559977;27;20127;-75
2023/01/03 16:26:59;;;;;;;30.83;19.38;;;;;;;6.11;100.00;102346.25;10524568;27;20044;-78
2023/01/03 16:32:00;;;;;;;27.38;20.05;;;;;;;6.30;100.00;102358.50;10554847;27;20089;-75
2023/01/03 16:37:00;;;;;;;26.55;16.38;;;;;;;6.34;100.00;102359.81;10564657;28;20139;-78
2023/01/03 16:42:13;;;;;;;23.15;17.08;;;;;;;6.33;100.00;102347.22;10551038;27;20484;-78
2023/01/03 16:47:18;;;;;;;23.95;15.38;;;;;;;6.27;100.00;102339.75;10536367;27;20036;-78
2023/01/03 16:52:21;;;;;;;20.15;15.05;;;;;;;6.30;100.00;102344.00;10563431;28;20059;-78
2023/01/03 16:57:22;;;;;;;23.08;14.05;;;;;;;6.22;100.00;102344.94;10553044;27;20059;-79
2023/01/03 17:02:22;;;;;;;19.10;13.98;;;;;;;6.25;100.00;102345.41;10566242;27;20036;-78
2023/01/03 17:07:22;;;;;;;19.00;13.07;;;;;;;5.94;100.00;102284.59;10568573;27;20062;-78
2023/01/03 17:12:23;;;;;;;17.27;12.73;;;;;;;6.04;100.00;102320.72;10586650;27;20036;-79
2023/01/03 17:17:24;;;;;;;21.02;12.90;;;;;;;6.07;100.00;102317.59;10551038;28;20035;-78
2023/01/03 17:22:24;;;;;;;17.88;12.77;;;;;;;6.06;100.00;102308.56;10546643;27;20051;-77
2023/01/03 17:27:25;;;;;;;21.92;14.45;;;;;;;6.02;100.00;102306.41;10575585;27;20031;-78
2023/01/03 17:32:25;;;;;;;14.85;12.18;;;;;;;5.97;100.00;102301.47;10567068;27;20077;-78
2023/01/03 17:37:26;;;;;;;21.90;13.00;;;;;;;5.96;100.00;102308.00;10583972;27;20032;-76
2023/01/03 17:42:27;;;;;;;16.63;11.75;;;;;;;5.92;100.00;102301.16;10581873;27;20060;-74
2023/01/03 17:52:47;;;;;;;20.85;12.00;;;;;;;5.92;100.00;102295.72;10584042;27;20047;-78
2023/01/03 17:57:47;;;;;;;15.55;11.88;;;;;;;5.91;100.00;102287.69;10569932;27;20047;-78
2023/01/03 18:02:48;;;;;;;17.17;12.27;;;;;;;5.82;100.00;102274.13;10543873;27;20036;-78
2023/01/03 18:07:48;;;;;;;15.90;12.65;;;;;;;5.84;100.00;102282.97;10541778;27;20109;-78
2023/01/03 18:12:49;;;;;;;21.73;12.80;;;;;;;5.75;100.00;102283.28;10567693;27;20080;-78
2023/01/03 18:17:50;;;;;;;15.38;12.88;;;;;;;5.56;100.00;102254.59;10567741;27;20069;-78
2023/01/03 18:22:50;;;;;;;19.58;13.98;;;;;;;5.60;100.00;102277.78;10566880;27;20065;-77
2023/01/03 18:27:56;;;;;;;17.23;13.23;;;;;;;5.55;100.00;102261.94;10546461;27;20047;-78
2023/01/03 18:32:56;;;;;;;18.00;13.63;;;;;;;5.52;100.00;102256.00;10537341;28;20093;-78
2023/01/03 18:37:57;;;;;;;18.52;13.50;;;;;;;5.51;100.00;102232.47;10556246;27;20032;-78
2023/01/03 18:43:07;;;;;;;19.42;14.30;;;;;;;5.62;100.00;102234.72;10567704;27;20032;-79
2023/01/03 18:48:12;;;;;;;20.85;13.93;;;;;;;5.36;100.00;102167.75;10566643;27;20032;-78
2023/01/03 18:53:21;;;;;;;17.83;13.73;;;;;;;5.71;100.00;102211.75;10573001;27;20040;-78
2023/01/03 18:58:34;;;;;;;22.08;14.63;;;;;;;5.75;100.00;102191.19;10560712;27;20031;-78
2023/01/03 19:03:35;;;;;;;17.88;14.50;;;;;;;5.74;100.00;102194.97;10578245;27;20031;-77
2023/01/03 19:08:36;;;;;;;25.08;13.80;;;;;;;5.69;100.00;102175.56;10548489;28;20046;-77
2023/01/03 19:13:50;;;;;;;20.05;12.93;;;;;;;5.72;100.00;102171.59;10577005;28;20040;-78
2023/01/03 19:18:50;;;;;;;14.00;11.93;;;;;;;5.83;100.00;102166.50;10551028;28;20446;-78
2023/01/03 19:24:07;;;;;;;20.50;12.00;;;;;;;5.86;100.00;102146.97;10536293;28;20406;-77
2023/01/03 19:29:19;;;;;;;11.13;9.85;;;;;;;5.77;100.00;102137.19;10535721;28;20048;-78
2023/01/03 19:34:23;;;;;;;11.60;10.13;;;;;;;5.79;100.00;102143.31;10538545;28;20036;-77
2023/01/03 19:39:24;;;;;;;12.60;9.82;;;;;;;5.74;100.00;102134.84;10552477;28;20033;-78
2023/01/03 19:44:25;;;;;;;12.05;9.80;;;;;;;5.73;100.00;102127.69;10552066;28;20036;-78
2023/01/03 19:49:25;;;;;;;17.35;10.00;;;;;;;5.83;100.00;102122.78;10537105;28;20036;-77
2023/01/03 19:54:26;;;;;;;15.32;9.05;;;;;;;5.92;100.00;102106.25;10541457;27;20040;-78
2023/01/03 19:59:33;;;;;;;11.07;8.98;;;;;;;6.01;100.00;102107.84;10511422;28;20085;-76
2023/01/03 20:04:33;;;;;;;13.30;8.38;;;;;;;6.02;100.00;102098.63;10552089;28;20074;-75
2023/01/03 20:09:34;;;;;;;11.13;9.30;;;;;;;6.05;100.00;102092.75;10575727;27;20046;-78
2023/01/03 20:14:34;;;;;;;14.05;8.35;;;;;;;6.17;100.00;102093.94;10578052;28;20483;-80
2023/01/03 20:19:35;;;;;;;9.32;7.60;;;;;;;6.28;100.00;102075.31;10562038;27;20042;-77
2023/01/03 20:24:35;;;;;;;12.00;6.72;;;;;;;6.35;100.00;102063.38;10561131;28;20036;-76
2023/01/03 20:29:35;;;;;;;11.65;7.45;;;;;;;5.99;100.00;101986.91;10538989;27;20104;-77
2023/01/03 20:34:36;;;;;;;9.82;6.82;;;;;;;6.29;100.00;102025.06;10526877;28;20928;-78
2023/01/03 20:39:37;;;;;;;10.50;6.78;;;;;;;6.30;100.00;102024.84;10482054;28;20044;-77
2023/01/03 20:44:37;;;;;;;13.57;7.75;;;;;;;6.25;100.00;102011.75;10504101;28;20041;-71
2023/01/03 20:49:38;;;;;;;9.98;6.65;;;;;;;6.23;100.00;102030.25;10468608;28;20475;-78
2023/01/03 20:54:39;;;;;;;13.55;7.47;;;;;;;6.25;100.00;102022.69;10500137;28;20067;-78
2023/01/03 20:59:39;;;;;;;9.98;7.22;;;;;;;6.33;100.00;102007.19;10500064;28;20085;-78
2023/01/03 21:04:40;;;;;;;10.80;6.65;;;;;;;6.26;100.00;101991.59;10499905;28;20048;-77
2023/01/03 21:09:40;;;;;;;14.20;9.02;;;;;;;6.38;100.00;101993.75;10499949;28;20037;-77
2023/01/03 21:14:41;;;;;;;9.27;6.93;;;;;;;6.38;100.00;101975.44;10520379;28;20884;-77
2023/01/03 21:19:41;;;;;;;12.50;6.80;;;;;;;6.43;100.00;101970.25;10519469;28;20047;-78
2023/01/03 21:24:42;;;;;;;10.43;6.20;;;;;;;6.47;100.00;101963.31;10528448;28;20047;-78
2023/01/03 21:29:42;;;;;;;16.10;6.43;;;;;;;6.56;100.00;101952.22;10531112;28;20032;-76
2023/01/03 21:34:44;;;;;;;12.95;6.50;;;;;;;6.65;100.00;101937.31;10526200;28;20051;-76
2023/01/03 21:39:44;;;;;;;11.32;5.60;;;;;;;6.66;100.00;101937.13;10512800;28;20103;-69
2023/01/03 21:44:45;;;;;;;13.85;6.13;;;;;;;6.73;100.00;101914.41;10547369;27;20024;-78
2023/01/03 21:49:45;;;;;;;15.65;5.13;;;;;;;6.72;100.00;101918.19;10530955;28;20040;-78
2023/01/03 21:54:45;;;;;;;8.10;4.50;;;;;;;6.67;100.00;101905.97;10543111;28;20075;-77
2023/01/03 21:59:46;;;;;;;10.50;5.78;;;;;;;6.70;100.00;101887.44;10535514;27;20055;-78
2023/01/03 22:04:46;;;;;;;6.22;5.03;;;;;;;6.64;100.00;101879.03;10520118;27;20066;-77
2023/01/03 22:15:07;;;;;;;8.70;4.70;;;;;;;6.76;100.00;101881.16;10533233;27;20038;-77
2023/01/03 22:20:12;;;;;;;8.40;5.47;;;;;;;6.86;100.00;101865.19;10503619;28;20036;-77
2023/01/03 22:25:14;;;;;;;16.88;5.70;;;;;;;6.89;100.00;101873.00;10511590;28;20070;-77
2023/01/03 22:30:17;;;;;;;12.27;4.72;;;;;;;6.90;100.00;101850.06;10544192;27;20048;-77
2023/01/03 22:35:17;;;;;;;10.32;4.05;;;;;;;6.92;100.00;101845.22;10545469;27;20043;-77
2023/01/03 22:40:18;;;;;;;11.35;4.43;;;;;;;6.98;100.00;101840.81;10526238;28;20044;-74
2023/01/03 22:45:18;;;;;;;10.60;4.57;;;;;;;7.02;100.00;101817.44;10511001;28;20040;-75
2023/01/03 22:50:19;;;;;;;7.10;3.97;;;;;;;7.00;100.00;101814.06;10518275;27;20055;-76
2023/01/03 22:55:19;;;;;;;10.32;5.05;;;;;;;6.99;100.00;101815.97;10519343;27;20048;-75
2023/01/03 23:00:20;;;;;;;8.02;4.43;;;;;;;6.99;100.00;101794.06;10509759;27;20440;-78
2023/01/03 23:05:21;;;;;;;8.13;3.92;;;;;;;7.05;100.00;101782.28;10504121;27;20361;-76
2023/01/03 23:10:21;;;;;;;8.48;3.92;;;;;;;7.04;100.00;101766.88;10515138;28;20044;-71
2023/01/03 23:15:22;;;;;;;9.73;4.40;;;;;;;7.01;100.00;101759.09;10509306;28;20054;-77
2023/01/03 23:20:30;;;;;;;11.00;4.97;;;;;;;7.00;100.00;101743.72;10508048;28;20051;-77
2023/01/03 23:25:32;;;;;;;8.57;4.03;;;;;;;6.98;100.00;101726.66;10547920;27;20391;-77
2023/01/03 23:30:32;;;;;;;10.27;3.88;;;;;;;7.04;100.00;101714.03;10505697;27;20055;-75
2023/01/03 23:35:33;;;;;;;9.63;4.95;;;;;;;6.96;100.00;101679.50;10546807;27;20036;-75
2023/01/03 23:40:33;;;;;;;5.93;4.00;;;;;;;7.06;100.00;101707.28;10534033;28;20036;-76
2023/01/03 23:45:34;;;;;;;6.65;3.90;;;;;;;7.09;100.00;101689.63;10516282;28;20063;-75